Terminal Aerodrome Forecast
Issued by NWS Midland/Odessa, TX

Home | Current Version | Previous Version | Text Only | Print | Product List | Glossary On
Versions: 1 2 3 4 5 6 7 8 9 10 11 12 13 14 15 16 17 18 19 20 21 22 23
000
FTUS44 KMAF 272322
TAFMAF
TAF
KMAF 272322Z 2800/2824 25015G25KT P6SM FEW250
     FM280100 24007KT P6SM SCT120 BKN250
     FM281100 02020G27KT P6SM BKN015=

USA.gov is the U.S. government's official web portal to all federal, state and local government web resources and services.